Time;durP1;ratioP1;P1;durP2;ratioP2;P2;SDS_P1;SDS_P2;PMS_P1;PMS_P2;Temp;Humidity;BMP_temperature;BMP_pressure;BME280_temperature;BME280_humidity;BME280_pressure;Samples;Min_cycle;Max_cycle;Signal;HPM_P1;HPM_P2
2022/11/27 00:01:41;;;;;;;25.83;13.55;;;2.30;99.90;;;;;;4997099;28;20032;-72
2022/11/27 00:04:09;;;;;;;29.60;14.70;;;2.20;99.90;;;;;;4996828;28;20413;-72
2022/11/27 00:06:37;;;;;;;29.40;15.57;;;2.20;99.90;;;;;;5014341;28;20030;-72
2022/11/27 00:09:06;;;;;;;26.80;13.20;;;2.20;99.90;;;;;;5017517;28;20018;-72
2022/11/27 00:11:31;;;;;;;;;;;2.10;99.90;;;;;;5021253;28;20022;-72
2022/11/27 00:13:58;;;;;;;28.73;14.00;;;2.10;99.90;;;;;;5020759;28;19906;-72
2022/11/27 00:16:25;;;;;;;24.98;12.75;;;2.10;99.90;;;;;;5020894;28;20106;-72
2022/11/27 00:18:51;;;;;;;29.95;14.20;;;2.10;99.90;;;;;;5020427;28;20025;-72
2022/11/27 00:21:22;;;;;;;31.13;13.98;;;2.20;99.90;;;;;;5020632;28;20022;-72
2022/11/27 00:23:49;;;;;;;34.22;16.10;;;2.10;99.90;;;;;;5003208;28;20030;-72
2022/11/27 00:26:14;;;;;;;29.65;15.15;;;2.10;99.90;;;;;;5020736;28;20030;-72
2022/11/27 00:28:40;;;;;;;31.25;15.63;;;2.20;99.90;;;;;;5020741;28;20351;-72
2022/11/27 00:31:21;;;;;;;28.40;15.30;;;2.30;99.90;;;;;;5003109;28;20153;-73
2022/11/27 00:33:47;;;;;;;32.25;15.80;;;2.30;99.90;;;;;;5021279;28;20450;-71
2022/11/27 00:36:14;;;;;;;36.38;18.00;;;2.30;99.90;;;;;;5020337;28;20046;-72
2022/11/27 00:38:40;;;;;;;34.38;16.88;;;2.40;99.90;;;;;;5021084;28;20026;-71
2022/11/27 00:41:08;;;;;;;34.47;16.35;;;2.40;99.90;;;;;;5003784;28;20022;-72
2022/11/27 00:43:35;;;;;;;36.40;16.77;;;2.40;99.90;;;;;;5004433;28;20033;-72
2022/11/27 00:46:01;;;;;;;33.28;16.65;;;2.40;99.90;;;;;;5005329;28;20026;-72
2022/11/27 00:48:27;;;;;;;31.58;16.85;;;2.50;99.90;;;;;;5022676;28;20030;-72
2022/11/27 00:50:59;;;;;;;35.30;15.95;;;2.50;99.90;;;;;;5005413;28;20059;-72
2022/11/27 00:53:25;;;;;;;34.88;15.70;;;2.50;99.90;;;;;;5023552;28;20108;-72
2022/11/27 00:55:50;;;;;;;29.20;16.33;;;2.50;99.90;;;;;;5010426;28;20068;-72
2022/11/27 00:58:16;;;;;;;36.03;17.23;;;2.40;99.90;;;;;;5010381;28;20032;-73
2022/11/27 01:00:41;;;;;;;30.58;16.17;;;2.40;99.90;;;;;;5029521;28;20037;-72
2022/11/27 01:03:07;;;;;;;35.95;17.13;;;2.40;99.90;;;;;;5012102;28;20038;-72
2022/11/27 01:05:36;;;;;;;32.47;16.70;;;2.40;99.90;;;;;;5011142;28;20466;-73
2022/11/27 01:08:02;;;;;;;29.67;15.88;;;2.30;99.90;;;;;;5010328;28;20485;-71
2022/11/27 01:10:28;;;;;;;34.40;17.17;;;2.30;99.90;;;;;;5010378;28;20093;-72
2022/11/27 01:12:53;;;;;;;31.25;16.17;;;2.20;99.90;;;;;;5026509;28;20045;-72
2022/11/27 01:15:19;;;;;;;36.97;15.30;;;2.20;99.90;;;;;;5025967;28;20033;-72
2022/11/27 01:17:45;;;;;;;36.42;16.17;;;2.10;99.90;;;;;;5007800;28;20378;-72
2022/11/27 01:20:11;;;;;;;30.38;15.77;;;2.10;99.90;;;;;;5005470;28;20550;-72
2022/11/27 01:22:36;;;;;;;30.83;16.35;;;2.10;99.90;;;;;;5022095;28;20106;-72
2022/11/27 01:25:02;;;;;;;34.33;17.08;;;2.10;99.90;;;;;;5003631;28;20459;-72
2022/11/27 01:27:28;;;;;;;30.95;15.15;;;2.10;99.90;;;;;;5003661;28;20097;-72
2022/11/27 01:29:53;;;;;;;35.55;15.73;;;2.00;99.90;;;;;;5003011;28;20442;-71
2022/11/27 01:32:19;;;;;;;30.67;16.13;;;2.00;99.90;;;;;;5002951;28;20409;-73
2022/11/27 01:34:45;;;;;;;35.08;17.27;;;2.00;99.90;;;;;;5020976;28;20057;-72
2022/11/27 01:37:10;;;;;;;34.47;16.23;;;2.00;99.90;;;;;;5020466;28;20037;-72
2022/11/27 01:39:36;;;;;;;33.90;16.10;;;2.10;99.90;;;;;;5019882;28;20026;-72
2022/11/27 01:42:02;;;;;;;30.63;16.85;;;1.90;99.90;;;;;;5018790;28;20030;-72
2022/11/27 01:44:27;;;;;;;36.70;17.63;;;1.90;99.90;;;;;;5001700;28;20378;-71
2022/11/27 01:46:55;;;;;;;34.33;16.30;;;1.90;99.90;;;;;;5018643;28;20026;-72
2022/11/27 01:49:39;;;;;;;36.55;18.38;;;1.90;99.90;;;;;;5001023;28;20072;-72
2022/11/27 01:52:09;;;;;;;34.67;16.33;;;1.90;99.90;;;;;;5018067;28;20029;-72
2022/11/27 01:54:57;;;;;;;35.00;16.15;;;1.80;99.90;;;;;;5017941;28;20034;-72
2022/11/27 01:57:37;;;;;;;31.23;15.48;;;1.90;99.90;;;;;;5000928;28;20524;-72
2022/11/27 02:00:05;;;;;;;36.30;17.88;;;1.80;99.90;;;;;;5000284;28;20398;-72
2022/11/27 02:02:31;;;;;;;31.55;16.48;;;1.80;99.90;;;;;;5000164;28;20025;-72
2022/11/27 02:04:56;;;;;;;41.15;17.20;;;1.80;99.90;;;;;;5017317;28;20044;-72
2022/11/27 02:07:22;;;;;;;32.88;16.40;;;1.70;99.90;;;;;;5017591;28;20032;-72
2022/11/27 02:09:48;;;;;;;32.78;16.25;;;1.70;99.90;;;;;;5017386;28;20037;-72
2022/11/27 02:12:26;;;;;;;32.63;15.35;;;1.70;99.90;;;;;;5017618;28;20083;-72
2022/11/27 02:14:54;;;;;;;32.40;15.65;;;1.70;99.90;;;;;;5000120;28;20038;-72
2022/11/27 02:17:58;;;;;;;39.28;17.00;;;1.60;99.90;;;;;;4999792;28;20030;-72
2022/11/27 02:20:39;;;;;;;35.97;17.02;;;1.60;99.90;;;;;;4979972;28;20096;-71
2022/11/27 02:23:45;;;;;;;36.45;16.13;;;1.50;99.90;;;;;;5016895;28;20026;-71
2022/11/27 02:26:36;;;;;;;40.83;17.13;;;1.50;99.90;;;;;;4972372;28;20556;-72
2022/11/27 02:29:10;;;;;;;36.33;16.17;;;1.40;99.90;;;;;;5016454;28;20022;-72
2022/11/27 02:31:56;;;;;;;83.38;18.38;;;1.40;99.90;;;;;;4998538;28;20032;-72
2022/11/27 02:34:31;;;;;;;66.30;17.52;;;1.40;99.90;;;;;;5015983;28;20426;-72
2022/11/27 02:37:19;;;;;;;53.33;16.90;;;1.40;99.90;;;;;;4998666;28;20382;-72
2022/11/27 02:39:56;;;;;;;61.67;17.90;;;1.40;99.90;;;;;;5016080;28;20029;-72
2022/11/27 02:42:24;;;;;;;50.33;17.08;;;1.40;99.90;;;;;;5016148;28;20026;-73
2022/11/27 02:44:55;;;;;;;39.87;17.30;;;1.40;99.90;;;;;;5015976;28;20481;-71
2022/11/27 02:47:22;;;;;;;47.70;18.73;;;1.30;99.90;;;;;;4998349;28;20033;-72
2022/11/27 02:49:50;;;;;;;50.25;17.48;;;1.30;99.90;;;;;;5015700;28;20030;-72
2022/11/27 02:52:18;;;;;;;46.65;18.83;;;1.30;99.90;;;;;;5016026;28;20022;-72
2022/11/27 02:54:45;;;;;;;62.92;20.25;;;1.30;99.90;;;;;;5015946;28;20030;-72
2022/11/27 02:57:12;;;;;;;43.85;16.83;;;1.40;99.90;;;;;;5015801;28;20026;-72
2022/11/27 02:59:40;;;;;;;43.75;18.02;;;1.30;99.90;;;;;;5015781;28;20033;-72
2022/11/27 03:02:13;;;;;;;46.45;17.48;;;1.30;99.90;;;;;;5015458;28;20026;-71
2022/11/27 03:04:45;;;;;;;54.88;18.40;;;1.30;99.90;;;;;;5015712;28;20481;-72
2022/11/27 03:07:19;;;;;;;53.13;18.35;;;1.30;99.90;;;;;;4997898;28;20496;-72
2022/11/27 03:09:48;;;;;;;67.20;18.50;;;1.30;99.90;;;;;;5015608;28;20366;-72
2022/11/27 03:12:16;;;;;;;72.78;18.80;;;1.20;99.90;;;;;;5015561;28;20084;-72
2022/11/27 03:14:43;;;;;;;53.88;14.27;;;1.20;99.90;;;;;;4998281;28;20489;-73
2022/11/27 03:17:23;;;;;;;73.68;18.65;;;1.20;99.90;;;;;;4997703;28;20029;-72
2022/11/27 03:20:14;;;;;;;73.93;19.65;;;1.20;99.90;;;;;;4997792;28;20030;-72
2022/11/27 03:22:41;;;;;;;98.38;20.48;;;1.30;99.90;;;;;;5015267;28;20129;-72
2022/11/27 03:25:07;;;;;;;84.75;20.52;;;1.20;99.90;;;;;;4997867;28;20373;-72
2022/11/27 03:27:43;;;;;;;89.03;19.73;;;1.20;99.90;;;;;;5015540;28;20484;-72
2022/11/27 03:30:09;;;;;;;80.47;20.15;;;1.50;99.90;;;;;;5015458;28;20470;-71
2022/11/27 03:32:35;;;;;;;69.50;19.23;;;1.10;99.90;;;;;;4997503;28;20030;-72
2022/11/27 03:35:01;;;;;;;61.92;19.67;;;1.10;99.90;;;;;;5014769;28;20053;-72
2022/11/27 03:37:27;;;;;;;72.45;20.05;;;1.20;99.90;;;;;;4997890;28;20378;-72
2022/11/27 03:39:53;;;;;;;99.65;20.10;;;1.10;99.90;;;;;;5017710;28;20030;-72
2022/11/27 03:42:25;;;;;;;81.18;20.42;;;1.10;99.90;;;;;;5017523;28;20508;-72
2022/11/27 03:45:00;;;;;;;76.85;21.35;;;1.10;99.90;;;;;;5016904;28;20111;-72
2022/11/27 03:47:41;;;;;;;64.95;20.08;;;1.10;99.90;;;;;;5017349;28;20060;-72
2022/11/27 03:50:49;;;;;;;80.30;21.08;;;1.10;99.90;;;;;;4999359;28;20381;-72
2022/11/27 03:53:48;;;;;;;64.32;19.20;;;1.10;99.90;;;;;;4999089;28;20049;-72
2022/11/27 03:56:50;;;;;;;72.32;20.00;;;1.10;99.90;;;;;;5021015;28;20068;-72
2022/11/27 03:59:21;;;;;;;61.70;20.13;;;1.10;99.90;;;;;;5022647;28;20121;-72
2022/11/27 04:01:47;;;;;;;63.78;20.17;;;1.20;99.90;;;;;;5005148;28;20026;-75
2022/11/27 04:04:13;;;;;;;65.32;20.20;;;1.30;99.90;;;;;;5023000;28;20041;-72
2022/11/27 04:06:39;;;;;;;49.38;19.83;;;1.20;99.90;;;;;;5005394;28;20061;-73
2022/11/27 04:09:05;;;;;;;61.78;19.42;;;1.30;99.90;;;;;;5024645;28;20053;-72
2022/11/27 04:11:31;;;;;;;79.68;21.15;;;1.20;99.90;;;;;;5024062;28;20026;-72
2022/11/27 04:13:56;;;;;;;67.25;20.02;;;1.20;99.90;;;;;;5020819;28;20133;-72
2022/11/27 04:16:22;;;;;;;64.60;20.55;;;1.20;99.90;;;;;;5020256;28;20034;-72
2022/11/27 04:18:48;;;;;;;74.30;21.60;;;1.20;99.90;;;;;;5023173;28;20050;-72
2022/11/27 04:21:13;;;;;;;62.63;19.85;;;1.20;99.90;;;;;;5005840;28;20030;-72
2022/11/27 04:23:39;;;;;;;85.95;21.88;;;1.30;99.90;;;;;;5007457;28;20048;-72
2022/11/27 04:26:05;;;;;;;73.07;20.40;;;1.30;99.90;;;;;;5024429;28;20033;-72
2022/11/27 04:28:31;;;;;;;108.00;23.42;;;1.30;99.90;;;;;;5005327;28;20053;-72
2022/11/27 04:30:57;;;;;;;117.55;21.55;;;1.40;99.90;;;;;;5004367;28;20033;-72
2022/11/27 04:33:22;;;;;;;92.28;21.25;;;1.30;99.90;;;;;;5020395;28;20108;-72
2022/11/27 04:35:49;;;;;;;103.43;20.77;;;1.40;99.90;;;;;;5001834;28;20054;-72
2022/11/27 04:38:15;;;;;;;148.35;24.30;;;1.40;99.90;;;;;;5018874;28;20101;-72
2022/11/27 04:40:40;;;;;;;90.40;21.92;;;1.40;99.90;;;;;;5002140;28;20069;-72
2022/11/27 04:43:06;;;;;;;138.02;23.85;;;1.60;99.90;;;;;;5002260;28;20033;-72
2022/11/27 04:45:32;;;;;;;103.28;23.70;;;1.50;99.90;;;;;;5019660;28;20132;-72
2022/11/27 04:47:57;;;;;;;88.43;22.35;;;1.50;99.90;;;;;;5019139;28;20018;-72
2022/11/27 04:50:23;;;;;;;110.20;22.42;;;1.50;99.90;;;;;;5019068;28;20030;-72
2022/11/27 04:52:49;;;;;;;82.93;22.35;;;1.60;99.90;;;;;;5018198;28;20089;-72
2022/11/27 04:55:14;;;;;;;94.53;22.10;;;1.60;99.90;;;;;;5017998;28;20034;-72
2022/11/27 04:57:40;;;;;;;88.70;22.23;;;1.60;99.90;;;;;;5002945;28;20117;-72
2022/11/27 05:00:06;;;;;;;89.65;22.17;;;1.60;99.90;;;;;;5019909;28;20071;-73
2022/11/27 05:02:32;;;;;;;89.93;22.40;;;1.60;99.90;;;;;;5021074;28;20105;-73
2022/11/27 05:04:58;;;;;;;79.18;22.05;;;1.60;99.90;;;;;;5003500;28;20069;-72
2022/11/27 05:07:24;;;;;;;79.85;21.92;;;1.70;99.90;;;;;;5020820;28;20107;-72
2022/11/27 05:09:50;;;;;;;66.97;21.27;;;1.60;99.90;;;;;;5019605;28;20025;-73
2022/11/27 05:12:16;;;;;;;91.97;22.02;;;1.60;99.90;;;;;;5003444;28;20034;-72
2022/11/27 05:14:41;;;;;;;76.78;22.15;;;1.70;99.90;;;;;;5019720;28;20036;-73
2022/11/27 05:17:09;;;;;;;78.30;19.60;;;1.70;99.90;;;;;;5020900;28;20025;-73
2022/11/27 05:19:34;;;;;;;88.60;20.65;;;1.60;99.90;;;;;;5003401;28;20469;-72
2022/11/27 05:22:00;;;;;;;63.10;21.20;;;1.70;99.90;;;;;;5003121;28;20113;-72
2022/11/27 05:24:27;;;;;;;58.03;20.45;;;1.60;99.90;;;;;;5020170;28;20070;-72
2022/11/27 05:26:54;;;;;;;48.13;19.48;;;1.60;99.90;;;;;;5019013;28;20026;-73
2022/11/27 05:29:20;;;;;;;97.38;23.02;;;1.70;99.90;;;;;;5021582;28;20030;-72
2022/11/27 05:31:46;;;;;;;97.57;21.98;;;1.70;99.90;;;;;;5023231;28;20488;-72
2022/11/27 05:34:12;;;;;;;89.30;21.42;;;1.70;99.90;;;;;;5023211;28;20038;-73
2022/11/27 05:36:38;;;;;;;66.70;20.90;;;1.70;99.90;;;;;;5005102;28;20463;-72
2022/11/27 05:39:06;;;;;;;48.38;20.48;;;1.70;99.90;;;;;;5022175;28;20041;-72
2022/11/27 05:41:32;;;;;;;69.60;19.67;;;1.70;99.90;;;;;;5022910;28;20026;-72
2022/11/27 05:43:58;;;;;;;47.15;18.73;;;1.70;99.90;;;;;;5005280;28;20117;-72
2022/11/27 05:46:24;;;;;;;52.28;19.27;;;1.70;99.90;;;;;;5005610;28;20065;-72
2022/11/27 05:48:49;;;;;;;70.10;20.30;;;1.80;99.90;;;;;;5004868;28;20516;-72
2022/11/27 05:51:16;;;;;;;48.40;19.67;;;1.80;99.90;;;;;;5020389;28;20033;-73
2022/11/27 05:53:42;;;;;;;73.53;21.02;;;1.80;99.90;;;;;;5021415;28;20382;-72
2022/11/27 05:56:10;;;;;;;52.00;19.70;;;1.80;99.90;;;;;;5021700;28;20026;-72
2022/11/27 05:58:36;;;;;;;55.40;20.00;;;1.70;99.90;;;;;;5020970;28;20052;-72
2022/11/27 06:01:03;;;;;;;46.08;19.23;;;1.70;99.90;;;;;;5019476;28;20017;-72
2022/11/27 06:03:29;;;;;;;54.15;18.60;;;1.70;99.90;;;;;;5020262;28;20021;-72
2022/11/27 06:05:55;;;;;;;55.45;18.40;;;1.70;99.90;;;;;;5001976;28;20105;-72
2022/11/27 06:08:20;;;;;;;52.85;18.00;;;1.70;99.90;;;;;;5002469;28;20037;-72
2022/11/27 06:10:46;;;;;;;45.15;18.98;;;1.70;99.90;;;;;;5019518;28;20029;-73
2022/11/27 06:13:13;;;;;;;47.50;18.50;;;1.70;99.90;;;;;;5002944;28;20115;-73
2022/11/27 06:15:39;;;;;;;78.72;20.80;;;1.70;99.90;;;;;;5020121;28;20104;-73
2022/11/27 06:18:05;;;;;;;58.33;19.38;;;1.70;99.90;;;;;;5019710;28;20045;-74
2022/11/27 06:20:31;;;;;;;51.20;19.42;;;1.70;99.90;;;;;;5002236;28;20025;-73
2022/11/27 06:22:57;;;;;;;53.53;20.17;;;1.70;99.90;;;;;;5002006;28;20060;-73
2022/11/27 06:25:24;;;;;;;54.72;20.77;;;1.70;99.90;;;;;;5019063;28;20034;-73
2022/11/27 06:27:50;;;;;;;58.25;19.85;;;1.80;99.90;;;;;;5001200;28;20029;-74
2022/11/27 06:30:16;;;;;;;51.90;20.35;;;1.70;99.90;;;;;;5001634;28;20030;-73
2022/11/27 06:32:41;;;;;;;57.47;20.30;;;1.70;99.90;;;;;;5003542;28;20087;-73
2022/11/27 06:35:07;;;;;;;45.30;19.27;;;1.80;99.90;;;;;;5002131;28;20117;-73
2022/11/27 06:37:33;;;;;;;50.88;19.90;;;1.80;99.90;;;;;;5002629;28;20061;-73
2022/11/27 06:39:59;;;;;;;53.83;20.67;;;1.80;99.90;;;;;;5002670;28;20030;-73
2022/11/27 06:42:28;;;;;;;44.83;19.15;;;1.80;99.90;;;;;;5020245;28;20049;-73
2022/11/27 06:44:54;;;;;;;48.15;20.85;;;1.80;99.90;;;;;;5003000;28;20101;-73
2022/11/27 06:47:20;;;;;;;50.38;21.00;;;2.00;99.90;;;;;;5002820;28;20474;-74
2022/11/27 06:49:45;;;;;;;49.03;19.45;;;1.90;99.90;;;;;;5002715;28;20065;-73
2022/11/27 06:52:11;;;;;;;52.75;21.13;;;1.90;99.90;;;;;;5002969;28;20463;-73
2022/11/27 06:54:36;;;;;;;44.40;18.67;;;2.00;99.90;;;;;;5019234;28;20030;-74
2022/11/27 06:57:02;;;;;;;44.65;21.48;;;1.90;99.90;;;;;;5020584;28;20030;-73
2022/11/27 06:59:28;;;;;;;51.78;22.00;;;1.90;99.90;;;;;;5001647;28;20071;-73
2022/11/27 07:01:53;;;;;;;46.42;19.35;;;1.90;99.90;;;;;;5000887;28;20080;-73
2022/11/27 07:04:19;;;;;;;44.45;19.77;;;1.90;99.90;;;;;;5021800;28;20038;-74
2022/11/27 07:06:45;;;;;;;47.25;19.17;;;2.00;99.90;;;;;;5023743;28;20026;-74
2022/11/27 07:09:11;;;;;;;56.88;20.25;;;2.00;99.90;;;;;;5022010;28;20030;-74
2022/11/27 07:11:38;;;;;;;54.55;21.02;;;2.00;99.90;;;;;;5021900;28;20025;-73
2022/11/27 07:14:04;;;;;;;46.88;20.02;;;2.00;99.90;;;;;;5021600;28;20367;-73
2022/11/27 07:16:32;;;;;;;47.97;21.83;;;2.00;99.90;;;;;;5001598;28;20124;-72
2022/11/27 07:19:00;;;;;;;47.53;21.50;;;2.00;99.90;;;;;;5000610;28;20025;-71
2022/11/27 07:21:26;;;;;;;44.05;20.73;;;2.20;99.90;;;;;;4997399;28;20022;-71
2022/11/27 07:23:52;;;;;;;50.90;21.80;;;2.20;99.90;;;;;;5001329;28;20034;-71
2022/11/27 07:26:20;;;;;;;48.97;19.70;;;2.20;99.90;;;;;;5019009;28;20029;-72
2022/11/27 07:28:46;;;;;;;51.30;20.17;;;2.30;99.90;;;;;;5001605;28;20378;-71
2022/11/27 07:31:15;;;;;;;43.95;19.42;;;2.30;99.90;;;;;;5000283;28;20026;-71
2022/11/27 07:33:41;;;;;;;46.08;21.27;;;2.40;99.90;;;;;;5000403;28;20025;-71
2022/11/27 07:36:12;;;;;;;38.78;19.63;;;2.40;99.90;;;;;;5017017;28;20049;-71
2022/11/27 07:38:38;;;;;;;44.55;20.85;;;2.40;99.90;;;;;;5016890;28;20041;-71
2022/11/27 07:41:05;;;;;;;48.90;22.05;;;2.50;99.90;;;;;;5015863;28;20034;-71
2022/11/27 07:43:32;;;;;;;42.35;21.02;;;2.50;99.90;;;;;;4999983;28;20037;-72
2022/11/27 07:46:01;;;;;;;39.25;20.35;;;2.60;99.90;;;;;;5000093;28;20038;-71
2022/11/27 07:48:27;;;;;;;38.15;19.92;;;2.70;99.90;;;;;;5001010;28;20049;-72
2022/11/27 07:50:53;;;;;;;34.88;18.77;;;2.70;99.90;;;;;;5019275;28;20022;-73
2022/11/27 07:53:18;;;;;;;38.83;20.02;;;2.70;99.90;;;;;;5016824;28;20032;-72
2022/11/27 07:55:44;;;;;;;39.58;19.45;;;2.80;99.90;;;;;;5018873;28;20092;-73
2022/11/27 07:58:10;;;;;;;36.38;18.45;;;2.90;99.90;;;;;;4999975;28;20030;-73
2022/11/27 08:00:36;;;;;;;38.88;17.73;;;2.90;99.90;;;;;;5018737;28;20113;-72
2022/11/27 08:03:01;;;;;;;41.50;19.42;;;2.90;99.90;;;;;;5019821;28;20057;-72
2022/11/27 08:05:27;;;;;;;36.65;17.63;;;2.90;99.90;;;;;;4999884;28;20470;-72
2022/11/27 08:07:53;;;;;;;38.92;19.65;;;2.90;99.90;;;;;;5019736;28;20032;-71
2022/11/27 08:10:19;;;;;;;39.30;20.35;;;2.90;99.90;;;;;;5004133;28;20030;-73
2022/11/27 08:12:44;;;;;;;42.38;21.38;;;2.90;99.90;;;;;;5005075;28;20030;-71
2022/11/27 08:15:11;;;;;;;38.00;20.10;;;2.90;99.90;;;;;;5003952;28;20458;-71
2022/11/27 08:17:37;;;;;;;37.42;21.05;;;2.90;99.90;;;;;;5015432;28;20045;-62
2022/11/27 08:20:04;;;;;;;45.88;21.88;;;2.90;99.90;;;;;;5014010;28;20076;-62
2022/11/27 08:22:30;;;;;;;46.25;22.52;;;2.90;99.90;;;;;;4996651;28;20072;-62
2022/11/27 08:24:55;;;;;;;52.35;23.35;;;3.00;99.90;;;;;;5013889;28;20073;-61
2022/11/27 08:27:21;;;;;;;56.25;23.60;;;3.00;99.90;;;;;;4996897;28;20057;-62
2022/11/27 08:29:47;;;;;;;63.70;25.80;;;3.20;99.90;;;;;;5015457;28;20370;-61
2022/11/27 08:32:13;;;;;;;62.22;27.23;;;3.70;99.90;;;;;;5018429;28;20359;-62
2022/11/27 08:34:38;;;;;;;56.05;27.60;;;4.30;99.90;;;;;;5017531;28;20081;-62
2022/11/27 08:37:05;;;;;;;44.05;22.70;;;4.60;99.90;;;;;;5017984;28;20029;-60
2022/11/27 08:39:31;;;;;;;46.08;23.75;;;4.60;99.90;;;;;;5019480;28;20026;-68
2022/11/27 08:41:57;;;;;;;46.47;22.80;;;4.40;99.90;;;;;;5002622;28;20173;-70
2022/11/27 08:44:22;;;;;;;50.92;21.80;;;4.60;99.90;;;;;;5022618;28;20034;-73
2022/11/27 08:46:48;;;;;;;44.08;21.58;;;4.70;99.90;;;;;;5004691;28;20021;-73
2022/11/27 08:49:14;;;;;;;40.70;21.98;;;4.60;99.90;;;;;;5022664;28;20505;-73
2022/11/27 08:51:40;;;;;;;66.78;20.80;;;4.50;99.90;;;;;;5003932;28;20037;-74
2022/11/27 08:54:06;;;;;;;48.28;21.90;;;4.40;99.90;;;;;;5019911;28;20072;-73
2022/11/27 08:56:31;;;;;;;71.85;20.38;;;4.30;99.90;;;;;;5019329;28;20041;-71
2022/11/27 08:58:57;;;;;;;50.10;21.27;;;4.20;99.90;;;;;;5019592;28;20371;-73
2022/11/27 09:01:26;;;;;;;47.70;22.30;;;4.30;99.90;;;;;;5001246;28;20095;-73
2022/11/27 09:03:51;;;;;;;49.15;21.40;;;4.40;99.90;;;;;;5001089;28;20084;-61
2022/11/27 09:06:20;;;;;;;46.53;22.38;;;4.60;99.90;;;;;;5016824;28;20436;-63
2022/11/27 09:08:46;;;;;;;42.15;19.75;;;4.90;99.90;;;;;;5017397;28;20030;-73
2022/11/27 09:11:14;;;;;;;40.80;18.75;;;5.20;99.90;;;;;;5016859;28;20062;-60
2022/11/27 09:13:40;;;;;;;43.60;20.02;;;5.50;99.90;;;;;;5016728;28;20469;-60
2022/11/27 09:16:10;;;;;;;28.35;16.85;;;6.10;99.90;;;;;;5017367;28;20033;-61
2022/11/27 09:18:36;;;;;;;28.20;16.40;;;7.00;99.90;;;;;;5017703;28;20022;-72
2022/11/27 09:21:04;;;;;;;23.38;15.90;;;8.00;99.90;;;;;;5001521;28;20026;-72
2022/11/27 09:23:30;;;;;;;22.42;15.25;;;8.90;99.90;;;;;;5016924;28;20033;-69
2022/11/27 09:26:06;;;;;;;19.90;14.13;;;9.70;99.90;;;;;;4999184;28;20048;-71
2022/11/27 09:28:32;;;;;;;18.15;12.27;;;10.40;99.90;;;;;;4999166;28;20025;-71
2022/11/27 09:31:00;;;;;;;17.55;12.50;;;11.20;99.90;;;;;;5016450;28;20036;-71
2022/11/27 09:33:28;;;;;;;13.43;10.83;;;11.60;99.90;;;;;;5016729;28;20030;-71
2022/11/27 09:35:53;;;;;;;17.77;10.88;;;11.70;99.90;;;;;;5016892;28;20096;-72
2022/11/27 09:38:19;;;;;;;17.55;11.75;;;11.30;99.90;;;;;;4999338;28;20208;-72
2022/11/27 09:41:23;;;;;;;16.88;11.00;;;11.30;99.90;;;;;;4998491;28;20036;-72
2022/11/27 09:43:55;;;;;;;13.02;10.20;;;11.50;99.90;;;;;;4987546;28;20042;-72
2022/11/27 09:46:41;;;;;;;13.32;9.45;;;11.70;99.90;;;;;;4998681;28;20042;-72
2022/11/27 09:49:12;;;;;;;12.50;8.23;;;11.80;99.90;;;;;;5009960;28;20419;-72
2022/11/27 09:52:19;;;;;;;12.65;8.65;;;11.90;99.90;;;;;;4979045;28;20038;-72
2022/11/27 09:55:02;;;;;;;15.75;8.98;;;12.00;99.90;;;;;;5012737;28;20039;-72
2022/11/27 09:57:37;;;;;;;11.93;8.45;;;12.10;99.90;;;;;;4998833;28;20074;-71
2022/11/27 10:00:16;;;;;;;14.70;8.18;;;12.20;99.90;;;;;;5015837;28;20462;-71
2022/11/27 10:02:42;;;;;;;13.93;7.75;;;12.30;99.90;;;;;;5016467;28;20038;-72
2022/11/27 10:05:23;;;;;;;13.73;7.95;;;12.50;99.90;;;;;;5012904;28;20127;-72
2022/11/27 10:08:01;;;;;;;12.25;6.70;;;12.20;99.90;;;;;;4996611;28;20158;-72
2022/11/27 10:10:27;;;;;;;11.80;6.47;;;11.90;99.90;;;;;;4978663;28;20034;-73
2022/11/27 10:13:14;;;;;;;12.27;6.38;;;11.70;99.90;;;;;;4995569;28;20033;-73
2022/11/27 10:15:54;;;;;;;11.00;7.13;;;12.00;99.90;;;;;;4994699;28;20030;-72
2022/11/27 10:18:39;;;;;;;9.15;5.93;;;12.20;99.90;;;;;;4978757;28;20034;-73
2022/11/27 10:21:10;;;;;;;8.77;5.10;;;12.30;99.90;;;;;;4979255;28;20467;-72
2022/11/27 10:24:23;;;;;;;8.82;5.85;;;12.50;99.90;;;;;;4996054;28;20026;-72
2022/11/27 10:26:53;;;;;;;12.00;5.97;;;12.60;99.90;;;;;;4955082;29;20050;-72
2022/11/27 10:29:57;;;;;;;11.40;6.45;;;12.80;99.90;;;;;;4988855;28;20030;-72
2022/11/27 10:32:26;;;;;;;9.63;6.00;;;13.10;99.90;;;;;;4938886;29;20023;-73
2022/11/27 10:35:00;;;;;;;8.50;5.47;;;13.40;99.90;;;;;;4987742;28;20043;-73
2022/11/27 10:37:37;;;;;;;12.30;4.95;;;13.70;99.90;;;;;;4996166;28;20026;-73
2022/11/27 10:40:06;;;;;;;9.55;4.40;;;14.30;99.90;;;;;;4978789;28;20383;-72
2022/11/27 10:42:36;;;;;;;11.05;5.05;;;14.60;98.60;;;;;;5001345;28;20389;-72
2022/11/27 10:45:25;;;;;;;8.70;3.88;;;15.20;98.20;;;;;;4994051;28;20034;-73
2022/11/27 10:47:51;;;;;;;7.50;4.53;;;16.10;93.00;;;;;;4946259;28;20125;-75
2022/11/27 10:50:18;;;;;;;7.57;4.00;;;16.30;88.30;;;;;;4995637;28;20109;-74
2022/11/27 10:52:58;;;;;;;8.85;3.35;;;15.80;83.40;;;;;;4977959;28;20053;-72
2022/11/27 10:55:57;;;;;;;9.27;3.22;;;15.10;80.20;;;;;;4978278;28;20056;-72
2022/11/27 10:58:40;;;;;;;6.60;3.83;;;14.40;82.10;;;;;;4978139;28;20050;-73
2022/11/27 11:01:15;;;;;;;6.20;2.72;;;14.60;81.90;;;;;;4995410;28;20101;-72
2022/11/27 11:03:40;;;;;;;7.68;2.83;;;14.30;81.70;;;;;;4994110;28;20034;-73
2022/11/27 11:06:12;;;;;;;5.15;3.10;;;13.60;81.90;;;;;;4977763;28;20474;-74
2022/11/27 11:08:38;;;;;;;6.53;3.33;;;13.00;87.20;;;;;;4994091;28;20031;-72
2022/11/27 11:11:06;;;;;;;6.10;3.10;;;12.70;89.80;;;;;;4977506;28;20029;-76
2022/11/27 11:13:49;;;;;;;8.50;3.20;;;12.20;90.80;;;;;;4999745;28;20033;-59
2022/11/27 11:16:21;;;;;;;8.05;3.55;;;11.60;92.60;;;;;;5003887;28;20030;-62
2022/11/27 11:18:52;;;;;;;7.57;3.67;;;11.20;94.40;;;;;;4998288;28;20029;-64
2022/11/27 11:21:39;;;;;;;8.00;3.20;;;11.00;95.70;;;;;;4995621;28;20114;-61
2022/11/27 11:24:13;;;;;;;11.70;4.35;;;10.80;95.90;;;;;;5002254;28;20104;-71
2022/11/27 11:26:59;;;;;;;7.03;3.72;;;10.60;97.70;;;;;;4997414;28;20026;-72
2022/11/27 11:29:57;;;;;;;7.43;3.70;;;10.40;99.00;;;;;;4995071;28;20172;-73
2022/11/27 11:32:29;;;;;;;8.38;4.55;;;10.30;99.90;;;;;;5007791;28;20382;-73
2022/11/27 11:34:58;;;;;;;13.90;4.35;;;10.10;99.90;;;;;;5000066;28;20056;-73
2022/11/27 11:38:09;;;;;;;8.02;4.32;;;9.90;99.90;;;;;;5000727;28;20424;-72
2022/11/27 11:40:36;;;;;;;10.40;3.85;;;9.70;99.90;;;;;;5016564;28;20036;-72
2022/11/27 11:43:06;;;;;;;7.97;3.30;;;9.60;99.90;;;;;;5016080;28;20026;-72
2022/11/27 11:45:33;;;;;;;6.43;3.58;;;9.50;99.90;;;;;;4998978;28;20041;-72
2022/11/27 11:48:33;;;;;;;6.72;4.00;;;9.40;99.90;;;;;;5011550;28;20232;-72
2022/11/27 11:51:16;;;;;;;6.05;3.85;;;9.40;99.90;;;;;;4995620;28;20030;-73
2022/11/27 11:57:36;;;;;;;10.43;5.38;;;9.30;99.90;;;;;;4926866;28;20045;-72
2022/11/27 12:00:21;;;;;;;7.28;4.80;;;9.20;99.90;;;;;;4995374;28;20023;-72
2022/11/27 12:03:21;;;;;;;14.43;5.60;;;9.10;99.90;;;;;;4993777;28;20031;-73
2022/11/27 12:06:02;;;;;;;14.32;6.90;;;9.10;99.90;;;;;;4994662;28;20106;-73
2022/11/27 12:08:54;;;;;;;14.65;7.95;;;9.10;99.90;;;;;;4994780;28;20030;-73
2022/11/27 12:11:41;;;;;;;10.27;5.38;;;9.00;99.90;;;;;;4994752;28;20030;-63
2022/11/27 12:14:17;;;;;;;15.38;6.03;;;9.00;99.90;;;;;;4994508;28;20034;-71
2022/11/27 12:17:08;;;;;;;13.63;7.22;;;8.90;99.90;;;;;;4994108;28;20085;-73
2022/11/27 12:19:46;;;;;;;16.42;7.05;;;8.90;99.90;;;;;;4994938;28;20037;-73
2022/11/27 12:25:52;;;;;;;10.43;6.25;;;8.90;99.90;;;;;;4994475;28;20390;-74
2022/11/27 12:28:27;;;;;;;12.60;7.00;;;8.80;99.90;;;;;;4993379;28;20117;-74
2022/11/27 12:30:55;;;;;;;13.88;5.50;;;8.80;99.90;;;;;;4994654;28;20022;-74
2022/11/27 12:34:00;;;;;;;13.52;5.78;;;8.80;99.90;;;;;;4993698;28;20426;-72
2022/11/27 12:37:12;;;;;;;12.57;5.57;;;8.80;99.90;;;;;;4994410;28;20467;-72
2022/11/27 12:40:27;;;;;;;12.80;5.07;;;8.70;99.90;;;;;;4993570;28;20037;-73
2022/11/27 12:43:23;;;;;;;9.45;4.05;;;8.60;99.90;;;;;;4994724;28;20031;-72
2022/11/27 12:46:18;;;;;;;8.35;3.38;;;8.50;99.90;;;;;;4994754;28;20034;-72
2022/11/27 12:52:32;;;;;;;7.57;3.72;;;8.40;99.90;;;;;;4990764;28;20033;-72
2022/11/27 12:55:11;;;;;;;9.80;3.92;;;8.40;99.90;;;;;;4995722;28;20041;-71
2022/11/27 12:57:51;;;;;;;8.25;3.83;;;8.40;99.90;;;;;;4995077;28;20030;-70
2022/11/27 13:00:20;;;;;;;8.65;3.55;;;8.30;99.90;;;;;;4996028;28;20054;-72
2022/11/27 13:02:48;;;;;;;9.73;4.32;;;8.20;99.90;;;;;;4996246;28;20031;-73
2022/11/27 13:05:21;;;;;;;10.88;3.50;;;8.20;99.90;;;;;;4995980;28;20035;-73
2022/11/27 13:08:34;;;;;;;8.88;3.60;;;8.20;99.90;;;;;;4996911;28;20030;-73
2022/11/27 13:11:08;;;;;;;7.93;3.88;;;8.10;99.90;;;;;;4897558;29;20714;-72